KMSL

Northwest Alabama Regional Airport

Muscle Shoals, Alabama, USA
METAR KMSL 271153Z AUTO 14003KT 9SM CLR 22/21 A2994 RMK AO2 SLP132 70002 T02220211 10228 20211 53012
Observed Flight Rules
May-27 @ 11:53 UTC (9 minutes ago) Visual Flight Rules
Wind Visibility Clouds
140° at 3 knots 9 miles
  • Clear skies
Temperatures Readings
Current 22°C / 72°F
Dewpoint 21°C / 70°F
Humidity 94%
Altimeter 29.94" Hg
Pressure 1013.2 hPa
Elevation 164
METAR KMSL 271153Z AUTO 14003KT 9SM CLR 22/21 A2994 RMK AO2 SLP132 70002 T02220211 10228 20211 53012
Observed Flight Rules
May-27 @ 11:53 UTC
(9 minutes ago)
VFR
Wind Visibility
140° at 3 knots 9 miles
Clouds
  • Clear skies
Temperature Dewpoint
22°C / 72°F 21°C / 70°F
Humidity Altimeter Pressure
94% 29.94" Hg 1013.2 hPa